EKKA

Karup Airport

Karup, Denmark
METAR EKKA 221750Z AUTO 15009KT 9999NDV NCD 15/06 Q1010
Observed Flight Rules
Apr-22 @ 17:50 UTC (20 minutes ago)
Wind Clouds
150° at 9 knots
  • Clear skies
Temperatures Readings
Current 15°C / 59°F
Dewpoint 6°C / 43°F
Humidity 55%
Altimeter 29.82" Hg
Pressure 1010 hPa
Elevation 52
METAR EKKA 221750Z AUTO 15009KT 9999NDV NCD 15/06 Q1010
Observed Flight Rules
Apr-22 @ 17:50 UTC
(20 minutes ago)
Wind
150° at 9 knots
Clouds
  • Clear skies
Temperature Dewpoint
15°C / 59°F 6°C / 43°F
Humidity Altimeter Pressure
55% 29.82" Hg 1010 hPa